createdAt,value
2019-03-12T12:56:22.407Z,74.83
2019-03-12T12:58:50.874Z,75.88
2019-03-12T13:01:19.360Z,75.88
2019-03-12T13:03:47.834Z,76.87
2019-03-12T13:06:16.395Z,76.87
2019-03-12T13:08:44.862Z,74.27
2019-03-12T13:11:13.327Z,72.57
2019-03-12T13:13:41.903Z,72.03
2019-03-12T13:16:10.524Z,69.31
2019-03-12T13:18:39.091Z,68.84
2019-03-12T13:21:07.559Z,64.07
2019-03-12T13:23:36.374Z,61.88
2019-03-12T13:26:04.968Z,61.21
2019-03-12T13:28:33.468Z,63.81
2019-03-12T13:31:02.002Z,63.50
2019-03-12T13:33:30.541Z,64.96
2019-03-12T13:35:58.979Z,65.89
2019-03-12T13:38:27.743Z,65.97
2019-03-12T13:40:56.781Z,62.65
2019-03-12T13:43:25.274Z,63.71
2019-03-12T13:45:53.737Z,65.67
2019-03-12T13:48:22.275Z,63.98
2019-03-12T13:50:50.885Z,66.58
2019-03-12T13:53:19.485Z,65.97
2019-03-12T13:55:47.973Z,63.99
2019-03-12T13:58:16.517Z,61.55
2019-03-12T14:00:45.249Z,62.06
2019-03-12T14:03:13.714Z,61.74
2019-03-12T14:05:42.203Z,63.44
2019-03-12T14:08:10.673Z,65.71
2019-03-12T14:10:39.170Z,64.14
2019-03-12T14:13:07.715Z,64.38
2019-03-12T14:15:38.522Z,64.30
2019-03-12T14:18:08.165Z,62.56
2019-03-12T14:20:47.957Z,57.11
2019-03-12T14:23:28.023Z,57.51
2019-03-12T14:25:57.052Z,59.34
2019-03-12T14:28:25.696Z,56.91
2019-03-12T14:30:54.265Z,56.96
2019-03-12T14:33:22.826Z,53.88
2019-03-12T14:35:52.385Z,54.05
2019-03-12T14:38:21.046Z,52.03
2019-03-12T14:40:49.625Z,52.25
2019-03-12T14:43:18.160Z,52.74
2019-03-12T14:45:51.535Z,51.25
2019-03-12T14:48:40.054Z,48.47
2019-03-12T14:51:26.376Z,47.92
2019-03-12T14:53:57.620Z,45.35
2019-03-12T14:56:28.244Z,48.55
2019-03-12T14:58:56.883Z,46.76
2019-03-12T15:01:25.446Z,45.21
2019-03-12T15:03:54.260Z,46.15
2019-03-12T15:06:22.834Z,48.72
2019-03-12T15:08:51.304Z,51.78
2019-03-12T15:11:19.800Z,52.29
2019-03-12T15:13:48.266Z,53.29
2019-03-12T15:16:16.758Z,57.42
2019-03-12T15:18:45.466Z,57.25
2019-03-12T15:21:14.128Z,57.06
2019-03-12T15:23:42.600Z,56.86
2019-03-12T15:26:11.107Z,58.05
2019-03-12T15:28:39.598Z,57.97
2019-03-12T15:31:08.070Z,56.27
2019-03-12T15:33:37.642Z,57.67
2019-03-12T15:36:06.111Z,58.69
2019-03-12T15:38:34.604Z,59.33
2019-03-12T15:41:03.068Z,59.56
2019-03-12T15:43:31.558Z,59.36
2019-03-12T15:46:00.019Z,60.81
2019-03-12T15:48:28.510Z,60.39
2019-03-12T15:50:56.983Z,61.49
2019-03-12T15:53:25.466Z,61.56
2019-03-12T15:55:55.866Z,63.96
2019-03-12T15:58:24.152Z,64.19
2019-03-12T16:00:52.691Z,62.11
2019-03-12T16:03:21.180Z,63.46
2019-03-12T16:05:49.644Z,63.32
2019-03-12T16:08:18.143Z,64.62
2019-03-12T16:10:57.186Z,64.70
2019-03-12T16:13:16.825Z,62.40
2019-03-12T16:15:45.288Z,63.45
2019-03-12T16:18:14.722Z,64.59
2019-03-12T16:20:43.431Z,66.00
2019-03-12T16:23:11.928Z,67.62
2019-03-12T16:25:40.399Z,68.00
2019-03-12T16:28:08.960Z,68.44
2019-03-12T16:30:37.426Z,67.83
2019-03-12T16:33:05.922Z,67.08
2019-03-12T16:35:34.392Z,67.49
2019-03-12T16:38:02.902Z,66.76
2019-03-12T16:40:31.357Z,66.25
2019-03-12T16:42:59.859Z,66.92
2019-03-12T16:45:28.319Z,66.56
2019-03-12T16:47:56.811Z,67.41
2019-03-12T16:50:25.346Z,66.89
2019-03-12T16:52:53.834Z,66.75
2019-03-12T16:55:22.298Z,67.74
2019-03-12T16:57:50.794Z,67.61
2019-03-12T17:00:20.809Z,68.07
2019-03-12T17:02:49.271Z,67.68
2019-03-12T17:05:17.766Z,67.49
2019-03-12T17:07:46.240Z,67.51
2019-03-12T17:10:20.810Z,68.13
2019-03-12T17:12:49.278Z,67.52
2019-03-12T17:15:26.171Z,67.83
2019-03-12T17:17:54.692Z,68.19
2019-03-12T17:20:23.347Z,69.61
2019-03-12T17:22:51.901Z,69.61
2019-03-12T17:25:20.489Z,69.82
2019-03-12T17:27:51.387Z,69.99
2019-03-12T17:30:25.632Z,69.03
2019-03-12T17:32:54.099Z,68.94
2019-03-12T17:35:28.562Z,69.13
2019-03-12T17:37:57.027Z,69.59
2019-03-12T17:40:25.520Z,68.28
2019-03-12T17:42:53.992Z,69.11
2019-03-12T17:45:22.484Z,69.12
2019-03-12T17:47:50.939Z,69.49
2019-03-12T17:50:19.499Z,68.31
2019-03-12T17:52:47.959Z,69.45
2019-03-12T17:55:16.592Z,68.56
2019-03-12T17:57:45.060Z,68.11
2019-03-12T18:00:35.517Z,68.73
2019-03-12T18:03:04.058Z,68.36
2019-03-12T18:05:32.552Z,68.66
2019-03-12T18:08:01.024Z,68.16
2019-03-12T18:10:29.508Z,68.50
2019-03-12T18:12:58.043Z,68.50
2019-03-12T18:15:26.530Z,68.50
2019-03-12T18:17:55.009Z,68.23
2019-03-12T18:20:24.357Z,67.58
2019-03-12T18:22:52.897Z,67.58
2019-03-12T18:25:32.640Z,68.38
2019-03-12T18:28:01.118Z,68.01
2019-03-12T18:30:29.775Z,68.01
2019-03-12T18:32:58.244Z,68.67
2019-03-12T18:35:26.907Z,68.67
2019-03-12T18:37:55.389Z,67.44
2019-03-12T18:40:27.822Z,67.42
2019-03-12T18:42:56.609Z,66.68
2019-03-12T18:45:30.290Z,66.68
2019-03-12T18:47:58.762Z,66.65
2019-03-12T18:50:27.243Z,65.40
2019-03-12T18:52:55.892Z,65.95
2019-03-12T18:55:33.176Z,65.37
2019-03-12T18:58:05.974Z,66.69
2019-03-12T19:00:35.333Z,66.63
2019-03-12T19:03:03.887Z,66.69
2019-03-12T19:05:32.383Z,66.50
2019-03-12T19:08:00.923Z,65.46
2019-03-12T19:10:29.406Z,66.60
2019-03-12T19:12:57.871Z,66.42
2019-03-12T19:15:26.433Z,65.86
2019-03-12T19:17:54.891Z,65.68
2019-03-12T19:20:23.456Z,65.73
2019-03-12T19:22:51.922Z,66.35
2019-03-12T19:25:32.567Z,66.50
2019-03-12T19:28:01.039Z,66.50
2019-03-12T19:30:29.597Z,66.08
2019-03-12T19:33:02.118Z,66.23
2019-03-12T19:35:31.643Z,66.42
2019-03-12T19:38:01.357Z,66.42
2019-03-12T19:40:49.717Z,66.70
2019-03-12T19:43:18.253Z,67.11
2019-03-12T19:45:46.746Z,66.27
2019-03-12T19:48:15.277Z,66.06
2019-03-12T19:50:43.770Z,65.91
2019-03-12T19:53:12.250Z,65.43
2019-03-12T19:55:45.926Z,65.91
2019-03-12T19:58:14.473Z,65.47
2019-03-12T20:00:43.897Z,65.40
2019-03-12T20:03:15.315Z,65.41
2019-03-12T20:05:42.821Z,64.18
2019-03-12T20:08:11.294Z,64.23
2019-03-12T20:11:05.259Z,64.23
2019-03-12T20:13:56.212Z,64.49
2019-03-12T20:16:39.838Z,65.60
2019-03-12T20:19:29.255Z,65.60
2019-03-12T20:22:19.958Z,64.94
2019-03-12T20:25:11.261Z,65.00
2019-03-12T20:28:05.462Z,65.56
2019-03-12T20:30:48.843Z,65.41
2019-03-12T20:33:55.376Z,64.47
2019-03-12T20:37:00.449Z,64.81
2019-03-12T20:39:56.237Z,65.06
2019-03-12T20:43:00.763Z,65.42
2019-03-12T20:45:48.842Z,64.44
2019-03-12T20:48:25.609Z,64.80
2019-03-12T20:51:19.961Z,63.93
2019-03-12T20:54:00.081Z,64.69
2019-03-12T20:57:06.809Z,63.58
2019-03-12T21:00:03.638Z,63.58
2019-03-12T21:02:40.946Z,62.42
2019-03-12T21:05:44.123Z,63.90
2019-03-12T21:08:41.616Z,63.99
2019-03-12T21:11:41.994Z,62.81
2019-03-12T21:14:33.188Z,62.81
2019-03-12T21:17:27.237Z,63.66
2019-03-12T21:20:18.605Z,64.37
2019-03-12T21:23:11.339Z,63.62
2019-03-12T21:25:51.877Z,64.12
2019-03-12T21:28:38.249Z,62.99
2019-03-12T21:31:06.819Z,64.03
2019-03-12T21:33:35.281Z,63.87
2019-03-12T21:36:03.934Z,63.87
2019-03-12T21:38:32.543Z,63.11
2019-03-12T21:41:01.480Z,64.00
2019-03-12T21:43:30.408Z,63.59
2019-03-12T21:45:59.299Z,64.67
2019-03-12T21:48:28.086Z,64.51
2019-03-12T21:50:56.620Z,63.37
2019-03-12T21:53:25.165Z,63.27
2019-03-12T21:55:53.720Z,64.23
2019-03-12T21:58:22.331Z,64.25
2019-03-12T22:00:51.212Z,64.25
2019-03-12T22:03:20.106Z,64.74
2019-03-12T22:05:48.895Z,64.51
2019-03-12T22:08:17.584Z,65.86
2019-03-12T22:10:46.056Z,66.19
2019-03-12T22:13:14.629Z,66.65
2019-03-12T22:15:43.107Z,66.26
2019-03-12T22:18:11.612Z,66.03
2019-03-12T22:20:40.250Z,65.38
2019-03-12T22:23:16.091Z,66.20
2019-03-12T22:25:44.569Z,65.23
2019-03-12T22:28:13.062Z,65.23
2019-03-12T22:30:41.903Z,64.99
2019-03-12T22:33:10.392Z,65.42
2019-03-12T22:35:38.864Z,65.77
2019-03-12T22:38:07.364Z,65.44
2019-03-12T22:40:35.837Z,64.88
2019-03-12T22:43:04.393Z,64.31
2019-03-12T22:45:32.862Z,64.48
2019-03-12T22:48:01.366Z,64.48
2019-03-12T22:50:29.826Z,64.54
2019-03-12T22:52:58.313Z,65.20
2019-03-12T22:55:26.783Z,65.36
2019-03-12T22:57:55.276Z,64.93
2019-03-12T23:00:23.915Z,64.57
2019-03-12T23:02:52.418Z,65.54
2019-03-12T23:05:20.882Z,65.54
2019-03-12T23:07:49.382Z,65.30
2019-03-12T23:10:18.578Z,65.32
2019-03-12T23:12:47.231Z,66.05
2019-03-12T23:15:19.548Z,66.46
2019-03-12T23:17:48.277Z,65.65
2019-03-12T23:20:19.324Z,65.58
2019-03-12T23:22:47.980Z,64.97
2019-03-12T23:25:16.441Z,65.42
2019-03-12T23:27:45.005Z,64.89
2019-03-12T23:30:15.611Z,64.16
2019-03-12T23:32:44.176Z,64.58
2019-03-12T23:35:12.809Z,64.28
2019-03-12T23:37:41.545Z,64.23
2019-03-12T23:40:15.261Z,63.55
2019-03-12T23:42:43.751Z,63.55
2019-03-12T23:45:14.205Z,62.59
2019-03-12T23:47:42.764Z,63.02
2019-03-12T23:50:14.353Z,62.84
2019-03-12T23:52:43.160Z,62.77
2019-03-12T23:55:13.756Z,62.59
2019-03-12T23:57:42.274Z,63.81
